Time;durP1;ratioP1;P1;durP2;ratioP2;P2;SDS_P1;SDS_P2;PMS_P1;PMS_P2;Temp;Humidity;BMP_temperature;BMP_pressure;BME280_temperature;BME280_humidity;BME280_pressure;Samples;Min_cycle;Max_cycle;Signal;HPM_P1;HPM_P2
2021/10/20 00:00:22;;;;;;;3.42;2.20;;;;;;;14.55;100.00;96782.59;5026398;28;20097;-53
2021/10/20 00:02:53;;;;;;;;;;;;;;;14.55;100.00;96779.94;5032305;28;20112;-49
2021/10/20 00:05:21;;;;;;;3.28;2.30;;;;;;;14.57;100.00;96772.66;5026955;28;19971;-52
2021/10/20 00:07:50;;;;;;;3.35;2.00;;;;;;;14.40;100.00;96771.72;5025441;28;20068;-47
2021/10/20 00:10:20;;;;;;;4.00;2.20;;;;;;;14.44;100.00;96770.41;5018846;28;20061;-48
2021/10/20 00:12:50;;;;;;;2.95;2.13;;;;;;;14.21;100.00;96770.16;5026385;28;20473;-51
2021/10/20 00:15:20;;;;;;;2.75;2.08;;;;;;;14.25;100.00;96764.38;5041014;28;20084;-54
2021/10/20 00:17:49;;;;;;;3.08;2.17;;;;;;;14.20;100.00;96763.19;5048068;28;20091;-55
2021/10/20 00:20:23;;;;;;;2.95;2.05;;;;;;;14.07;100.00;96765.44;5023291;28;20164;-50
2021/10/20 00:22:52;;;;;;;3.85;1.90;;;;;;;14.15;100.00;96754.91;5030158;28;20069;-48
2021/10/20 00:25:21;;;;;;;2.35;1.90;;;;;;;14.15;100.00;96757.56;5042102;28;20679;-53
2021/10/20 00:27:49;;;;;;;2.72;2.00;;;;;;;14.11;100.00;96754.38;5036721;28;20074;-53
2021/10/20 00:30:18;;;;;;;3.08;1.90;;;;;;;14.01;100.00;96754.50;5036898;28;20081;-51
2021/10/20 00:32:46;;;;;;;3.00;1.83;;;;;;;13.94;100.00;96755.31;5042034;28;20081;-52
2021/10/20 00:35:15;;;;;;;3.25;2.10;;;;;;;13.96;100.00;96750.66;5026901;28;20077;-50
2021/10/20 00:37:45;;;;;;;3.42;2.33;;;;;;;13.92;100.00;96744.03;5022976;28;20049;-53
2021/10/20 00:40:14;;;;;;;3.60;2.30;;;;;;;13.80;100.00;96742.63;5017317;28;20076;-51
2021/10/20 00:42:44;;;;;;;2.83;2.13;;;;;;;13.76;100.00;96734.16;5017087;28;20069;-47
2021/10/20 00:45:13;;;;;;;3.57;2.43;;;;;;;13.77;100.00;96725.22;5025604;28;20081;-51
2021/10/20 00:47:42;;;;;;;2.80;2.15;;;;;;;13.81;100.00;96731.88;5037011;28;20077;-54
2021/10/20 00:50:14;;;;;;;3.05;2.10;;;;;;;13.81;100.00;96725.75;5019786;28;20723;-54
2021/10/20 00:52:43;;;;;;;3.90;2.35;;;;;;;13.78;100.00;96724.22;5024622;28;20468;-54
2021/10/20 00:55:14;;;;;;;3.05;2.20;;;;;;;13.76;100.00;96712.94;5022405;28;21822;-51
2021/10/20 00:57:46;;;;;;;3.25;2.30;;;;;;;13.69;100.00;96712.75;5023302;28;20480;-53
2021/10/20 01:00:16;;;;;;;7.95;2.40;;;;;;;13.71;100.00;96712.59;5023736;28;20085;-54
2021/10/20 01:02:45;;;;;;;3.70;2.38;;;;;;;13.69;100.00;96709.25;5026796;28;20081;-49
2021/10/20 01:05:14;;;;;;;3.30;2.60;;;;;;;13.61;100.00;96707.41;5029074;28;20061;-53
2021/10/20 01:07:43;;;;;;;4.40;2.50;;;;;;;13.52;100.00;96703.03;5038134;28;20069;-53
2021/10/20 01:10:13;;;;;;;2.60;2.13;;;;;;;13.48;100.00;96693.75;5029701;28;20157;-53
2021/10/20 01:12:43;;;;;;;3.08;2.20;;;;;;;13.25;100.00;96696.13;5022867;28;20073;-55
2021/10/20 01:15:12;;;;;;;4.07;1.95;;;;;;;12.56;100.00;96690.56;5034445;28;20077;-54
2021/10/20 01:17:41;;;;;;;4.22;2.20;;;;;;;12.99;100.00;96686.28;5043414;28;20549;-48
2021/10/20 01:20:11;;;;;;;3.60;2.30;;;;;;;12.95;100.00;96686.75;5044547;28;20065;-52
2021/10/20 01:22:41;;;;;;;3.47;2.33;;;;;;;12.93;100.00;96686.88;5038517;28;20549;-48
2021/10/20 01:25:10;;;;;;;2.47;1.92;;;;;;;12.93;100.00;96686.06;5037270;28;20061;-48
2021/10/20 01:27:39;;;;;;;3.55;2.22;;;;;;;12.81;100.00;96681.03;5031191;28;20083;-49
2021/10/20 01:30:09;;;;;;;2.88;2.15;;;;;;;12.74;100.00;96672.03;5046294;28;20083;-50
2021/10/20 01:32:38;;;;;;;2.90;2.10;;;;;;;12.76;100.00;96670.03;5038189;28;20282;-49
2021/10/20 01:35:07;;;;;;;3.78;2.30;;;;;;;12.43;100.00;96666.31;5025656;28;20100;-55
2021/10/20 01:37:36;;;;;;;2.80;2.03;;;;;;;12.19;100.00;96661.59;5022442;28;20527;-47
2021/10/20 01:40:08;;;;;;;3.08;2.13;;;;;;;12.34;100.00;96661.91;5021967;28;20065;-49
2021/10/20 01:42:36;;;;;;;3.00;2.40;;;;;;;11.66;100.00;96662.28;5024292;28;20069;-49
2021/10/20 01:45:08;;;;;;;4.18;2.47;;;;;;;12.26;100.00;96653.91;5049393;28;20088;-53
2021/10/20 01:47:37;;;;;;;2.88;2.15;;;;;;;12.35;100.00;96656.50;5023498;28;20338;-52
2021/10/20 01:50:07;;;;;;;5.15;2.10;;;;;;;12.17;100.00;96652.97;5044125;28;20076;-54
2021/10/20 01:52:36;;;;;;;3.75;2.35;;;;;;;12.17;100.00;96654.78;5032666;28;20069;-54
2021/10/20 01:55:07;;;;;;;5.72;2.42;;;;;;;12.26;100.00;96643.34;5023805;28;20088;-47
2021/10/20 01:57:35;;;;;;;4.45;2.22;;;;;;;12.19;100.00;96644.91;5030159;28;20057;-50
2021/10/20 02:00:05;;;;;;;3.60;2.38;;;;;;;12.16;100.00;96640.75;5047332;28;20080;-53
2021/10/20 02:02:33;;;;;;;3.95;1.80;;;;;;;11.63;100.00;96641.44;5038222;28;20073;-55
2021/10/20 02:05:02;;;;;;;2.70;2.08;;;;;;;11.84;100.00;96636.78;5049710;28;20091;-55
2021/10/20 02:07:30;;;;;;;2.72;2.20;;;;;;;11.80;100.00;96629.25;5051240;28;20080;-55
2021/10/20 02:09:59;;;;;;;3.10;2.08;;;;;;;11.73;100.00;96628.19;5040684;28;20069;-54
2021/10/20 02:12:29;;;;;;;2.65;2.00;;;;;;;11.83;100.00;96624.50;5024640;28;20084;-50
2021/10/20 02:14:57;;;;;;;3.35;2.10;;;;;;;11.79;100.00;96615.22;5033732;28;20466;-53
2021/10/20 02:17:25;;;;;;;4.15;2.40;;;;;;;12.04;100.00;96620.78;5022878;28;20061;-50
2021/10/20 02:19:54;;;;;;;4.00;2.10;;;;;;;11.60;100.00;96615.34;5034962;28;20073;-49
2021/10/20 02:22:22;;;;;;;2.75;2.00;;;;;;;11.88;100.00;96611.72;5045484;28;20064;-50
2021/10/20 02:24:55;;;;;;;2.72;2.00;;;;;;;11.84;100.00;96606.91;5028919;28;20084;-51
2021/10/20 02:27:23;;;;;;;2.80;1.98;;;;;;;11.53;100.00;96604.53;5028402;28;20461;-53
2021/10/20 02:29:53;;;;;;;2.80;1.90;;;;;;;11.14;100.00;96603.84;5030203;28;20088;-51
2021/10/20 02:32:21;;;;;;;2.65;1.80;;;;;;;11.10;100.00;96605.94;5025142;28;20069;-51
2021/10/20 02:34:50;;;;;;;3.78;2.05;;;;;;;11.25;100.00;96598.41;5014428;28;20445;-50
2021/10/20 02:37:18;;;;;;;3.60;2.15;;;;;;;10.97;100.00;96597.50;5023049;28;20073;-49
2021/10/20 02:39:47;;;;;;;2.75;2.15;;;;;;;11.43;100.00;96601.09;5028319;28;20096;-52
2021/10/20 02:42:15;;;;;;;2.33;2.00;;;;;;;11.55;100.00;96596.44;5023426;28;20092;-51
2021/10/20 02:44:44;;;;;;;2.60;1.90;;;;;;;11.24;100.00;96601.19;5026973;28;20620;-51
2021/10/20 02:47:14;;;;;;;2.53;1.83;;;;;;;11.04;100.00;96595.97;5030404;28;20782;-54
2021/10/20 02:49:42;;;;;;;2.47;1.70;;;;;;;11.21;100.00;96590.91;5023268;28;20072;-51
2021/10/20 02:52:10;;;;;;;2.03;1.63;;;;;;;11.16;100.00;96588.72;5027285;28;20513;-56
2021/10/20 02:54:39;;;;;;;2.58;1.77;;;;;;;11.20;100.00;96590.09;5021048;28;20072;-49
2021/10/20 02:57:07;;;;;;;2.28;1.90;;;;;;;11.05;100.00;96588.91;5022197;28;20085;-52
2021/10/20 02:59:36;;;;;;;2.13;1.80;;;;;;;11.12;100.00;96587.34;5021241;28;20056;-54
2021/10/20 03:02:05;;;;;;;2.00;1.80;;;;;;;11.16;100.00;96576.34;5040646;28;20076;-52
2021/10/20 03:04:34;;;;;;;4.35;1.90;;;;;;;11.10;100.00;96582.19;5037493;28;20059;-50
2021/10/20 03:07:03;;;;;;;8.45;2.38;;;;;;;10.84;100.00;96576.75;5031878;28;20466;-52
2021/10/20 03:09:31;;;;;;;2.80;1.90;;;;;;;10.97;100.00;96575.56;5045025;28;20087;-51
2021/10/20 03:12:00;;;;;;;2.75;1.75;;;;;;;11.05;100.00;96576.53;5045065;28;20088;-51
2021/10/20 03:14:28;;;;;;;2.65;1.65;;;;;;;10.97;100.00;96568.50;5041603;28;20072;-52
2021/10/20 03:16:57;;;;;;;4.07;2.22;;;;;;;11.03;100.00;96572.38;5025531;28;20080;-54
2021/10/20 03:19:25;;;;;;;2.33;1.77;;;;;;;10.77;100.00;96573.03;5019993;28;20078;-48
2021/10/20 03:21:55;;;;;;;5.60;1.70;;;;;;;10.81;100.00;96571.75;5023289;28;20072;-55
2021/10/20 03:24:23;;;;;;;1.40;1.30;;;;;;;10.94;100.00;96566.13;5024854;28;20073;-53
2021/10/20 03:26:52;;;;;;;1.85;1.67;;;;;;;10.74;100.00;96564.56;5046877;28;20095;-53
2021/10/20 03:29:20;;;;;;;3.40;2.05;;;;;;;10.76;100.00;96565.22;5043913;28;20061;-54
2021/10/20 03:31:49;;;;;;;3.88;2.45;;;;;;;10.85;100.00;96561.75;5043770;28;20079;-53
2021/10/20 03:34:17;;;;;;;5.07;2.10;;;;;;;10.74;100.00;96549.56;5033627;28;20080;-51
2021/10/20 03:36:46;;;;;;;2.53;1.83;;;;;;;10.61;100.00;96546.41;5042015;28;20077;-49
2021/10/20 03:39:15;;;;;;;1.83;1.70;;;;;;;10.41;100.00;96545.59;5044876;28;20072;-53
2021/10/20 03:41:44;;;;;;;2.38;1.75;;;;;;;10.71;100.00;96536.66;5045175;28;20080;-52
2021/10/20 03:44:12;;;;;;;2.17;1.80;;;;;;;10.73;100.00;96536.50;5046492;28;20073;-48
2021/10/20 03:46:40;;;;;;;4.47;1.90;;;;;;;10.44;100.00;96534.78;5031929;28;20069;-53
2021/10/20 03:49:09;;;;;;;3.67;2.13;;;;;;;10.41;100.00;96535.88;5014652;28;20954;-50
2021/10/20 03:51:38;;;;;;;2.33;1.90;;;;;;;10.62;100.00;96535.69;5039192;28;20490;-53
2021/10/20 03:54:06;;;;;;;2.58;1.70;;;;;;;10.59;100.00;96525.44;5021068;28;20465;-53
2021/10/20 03:56:36;;;;;;;2.50;1.92;;;;;;;10.54;100.00;96524.22;5051833;28;20069;-47
2021/10/20 03:59:04;;;;;;;2.88;2.20;;;;;;;10.39;100.00;96521.16;5039783;28;20466;-51
2021/10/20 04:01:33;;;;;;;4.05;2.33;;;;;;;10.28;100.00;96516.06;5049601;28;20528;-48
2021/10/20 04:04:02;;;;;;;8.93;3.08;;;;;;;10.48;100.00;96515.06;5026092;28;20076;-51
2021/10/20 04:06:30;;;;;;;9.95;2.70;;;;;;;10.11;100.00;96512.31;5024946;28;22711;-54
2021/10/20 04:08:58;;;;;;;10.98;2.50;;;;;;;9.96;100.00;96506.66;5048524;28;20615;-53
2021/10/20 04:11:27;;;;;;;4.95;2.47;;;;;;;10.23;100.00;96503.28;5012720;28;20553;-53
2021/10/20 04:13:57;;;;;;;3.30;2.50;;;;;;;10.34;100.00;96500.53;5022559;28;20529;-49
2021/10/20 04:16:25;;;;;;;4.93;2.58;;;;;;;10.41;100.00;96498.97;5027549;28;20073;-53
2021/10/20 04:18:53;;;;;;;4.63;2.70;;;;;;;10.44;100.00;96489.97;5046388;28;20076;-50
2021/10/20 04:21:22;;;;;;;4.75;3.08;;;;;;;10.44;100.00;96490.78;5034791;28;20092;-52
2021/10/20 04:23:50;;;;;;;3.88;2.83;;;;;;;10.64;100.00;96481.00;5016336;28;20085;-52
2021/10/20 04:26:19;;;;;;;4.55;2.92;;;;;;;10.67;100.00;96475.47;5033241;28;20079;-51
2021/10/20 04:28:47;;;;;;;4.85;2.65;;;;;;;10.68;100.00;96478.91;5028922;28;20109;-48
2021/10/20 04:31:17;;;;;;;5.00;3.05;;;;;;;10.41;100.00;96475.25;5032526;28;20060;-50
2021/10/20 04:33:46;;;;;;;3.55;2.83;;;;;;;10.71;100.00;96470.72;5043550;28;20076;-50
2021/10/20 04:36:14;;;;;;;5.43;2.83;;;;;;;10.86;100.00;96463.97;5046470;28;20460;-51
2021/10/20 04:38:42;;;;;;;4.90;2.67;;;;;;;10.63;100.00;96467.97;5015157;28;20092;-51
2021/10/20 04:41:11;;;;;;;3.83;2.63;;;;;;;10.52;100.00;96463.69;5041591;28;20080;-52
2021/10/20 04:43:40;;;;;;;3.03;2.42;;;;;;;10.47;100.00;96467.75;5026930;28;20068;-54
2021/10/20 04:46:08;;;;;;;2.90;2.33;;;;;;;10.53;100.00;96449.56;5026014;28;20632;-51
2021/10/20 04:48:38;;;;;;;4.60;2.70;;;;;;;10.50;100.00;96446.38;5027113;28;20113;-52
2021/10/20 04:51:07;;;;;;;3.10;2.38;;;;;;;10.49;100.00;96455.25;5051843;28;20141;-50
2021/10/20 04:53:35;;;;;;;5.15;2.53;;;;;;;10.58;100.00;96447.31;5043122;28;20061;-50
2021/10/20 04:56:04;;;;;;;12.13;2.90;;;;;;;10.66;100.00;96439.50;5038296;28;20072;-48
2021/10/20 04:58:32;;;;;;;3.10;2.20;;;;;;;10.54;100.00;96439.84;5037005;28;20077;-54
2021/10/20 05:01:01;;;;;;;7.82;2.75;;;;;;;10.26;100.00;96444.25;5032495;28;20076;-50
2021/10/20 05:03:29;;;;;;;4.68;3.00;;;;;;;10.19;100.00;96442.13;5053596;28;20076;-47
2021/10/20 05:05:59;;;;;;;19.50;2.67;;;;;;;10.30;100.00;96442.97;5039487;28;20093;-52
2021/10/20 05:08:28;;;;;;;21.55;2.15;;;;;;;10.37;100.00;96439.63;5043141;28;20061;-49
2021/10/20 05:10:57;;;;;;;9.50;1.60;;;;;;;10.40;100.00;96436.69;5045231;28;20079;-52
2021/10/20 05:13:26;;;;;;;4.30;1.38;;;;;;;10.41;100.00;96433.06;5049575;28;20516;-55
2021/10/20 05:15:55;;;;;;;10.93;1.50;;;;;;;10.32;100.00;96433.09;5048213;28;20486;-53
2021/10/20 05:18:24;;;;;;;17.85;2.13;;;;;;;10.34;100.00;96426.72;5041107;28;20041;-54
2021/10/20 05:20:52;;;;;;;4.70;1.50;;;;;;;10.36;100.00;96439.78;5037886;28;20556;-50
2021/10/20 05:23:22;;;;;;;19.58;2.20;;;;;;;10.35;100.00;96438.09;5041164;28;20076;-53
2021/10/20 05:25:51;;;;;;;19.98;2.28;;;;;;;10.37;100.00;96441.44;5020915;28;20088;-51
2021/10/20 05:28:20;;;;;;;5.40;2.38;;;;;;;10.33;100.00;96440.06;5021086;28;20084;-56
2021/10/20 05:30:48;;;;;;;2.80;2.10;;;;;;;10.37;100.00;96442.25;5020656;28;20532;-55
2021/10/20 05:33:17;;;;;;;16.40;3.30;;;;;;;10.24;100.00;96439.06;5024464;28;20589;-54
2021/10/20 05:35:45;;;;;;;13.07;2.75;;;;;;;9.84;100.00;96445.41;5044811;28;20107;-48
2021/10/20 05:38:14;;;;;;;30.45;2.65;;;;;;;9.92;100.00;96439.41;5044216;28;20065;-51
2021/10/20 05:40:44;;;;;;;20.00;2.60;;;;;;;10.08;100.00;96442.31;5034365;28;20537;-57
2021/10/20 05:43:12;;;;;;;16.00;2.88;;;;;;;9.94;100.00;96443.59;5038208;28;20536;-54
2021/10/20 05:45:40;;;;;;;3.67;2.42;;;;;;;10.07;100.00;96440.63;5046095;28;20556;-55
2021/10/20 05:48:09;;;;;;;3.58;2.53;;;;;;;9.89;100.00;96443.16;5044012;28;20089;-53
2021/10/20 05:50:37;;;;;;;3.47;2.20;;;;;;;10.03;100.00;96441.88;5035111;28;20080;-53
2021/10/20 05:53:05;;;;;;;5.00;2.50;;;;;;;9.83;100.00;96446.34;5040610;28;20163;-51
2021/10/20 05:55:34;;;;;;;3.17;2.28;;;;;;;9.83;100.00;96441.06;5033136;28;20071;-49
2021/10/20 05:58:05;;;;;;;4.57;2.60;;;;;;;10.02;100.00;96447.31;5046247;28;20053;-54
2021/10/20 06:00:33;;;;;;;4.03;2.60;;;;;;;10.19;100.00;96426.31;5050694;28;20069;-54
2021/10/20 06:03:02;;;;;;;5.72;3.08;;;;;;;10.25;100.00;96429.34;5038127;28;20092;-55
2021/10/20 06:05:31;;;;;;;5.57;3.00;;;;;;;10.27;100.00;96436.19;5025931;28;20073;-52
2021/10/20 06:07:59;;;;;;;7.65;3.65;;;;;;;10.04;100.00;96426.91;5040555;28;20064;-51
2021/10/20 06:10:28;;;;;;;6.07;2.88;;;;;;;9.52;100.00;96412.28;5047909;28;20056;-50
2021/10/20 06:12:56;;;;;;;4.93;2.70;;;;;;;9.34;100.00;96408.69;5048805;28;20064;-52
2021/10/20 06:15:26;;;;;;;3.80;2.72;;;;;;;9.36;100.00;96412.03;5033764;28;20060;-49
2021/10/20 06:18:05;;;;;;;6.32;2.78;;;;;;;9.38;100.00;96402.16;5051195;28;20478;-55
2021/10/20 06:20:33;;;;;;;3.42;2.88;;;;;;;9.74;100.00;96400.63;5036230;28;20461;-51
2021/10/20 06:23:03;;;;;;;4.80;2.50;;;;;;;9.93;100.00;96397.13;5047081;28;20104;-51
2021/10/20 06:25:31;;;;;;;3.30;2.45;;;;;;;10.44;100.00;96398.50;5048372;28;20472;-50
2021/10/20 06:28:00;;;;;;;5.07;2.70;;;;;;;10.88;100.00;96395.25;5040345;28;20525;-53
2021/10/20 06:30:30;;;;;;;4.72;2.88;;;;;;;10.86;100.00;96403.31;5035716;28;20652;-54
2021/10/20 06:32:59;;;;;;;4.35;2.63;;;;;;;11.14;100.00;96396.19;5037455;28;20084;-53
2021/10/20 06:35:27;;;;;;;5.90;2.50;;;;;;;11.32;100.00;96401.50;5029789;28;20107;-54
2021/10/20 06:37:56;;;;;;;5.10;3.60;;;;;;;11.60;100.00;96399.59;5024874;28;20442;-55
2021/10/20 06:40:24;;;;;;;5.30;3.78;;;;;;;11.75;100.00;96405.16;5015751;28;20079;-51
2021/10/20 06:42:53;;;;;;;4.97;3.45;;;;;;;11.83;100.00;96407.84;5036447;28;20087;-52
2021/10/20 06:45:21;;;;;;;3.20;2.30;;;;;;;12.00;100.00;96406.19;5037377;28;20088;-48
2021/10/20 06:47:51;;;;;;;5.72;2.80;;;;;;;12.29;100.00;96400.59;5020016;28;20160;-55
2021/10/20 06:50:20;;;;;;;6.00;2.30;;;;;;;12.30;100.00;96401.41;5031533;28;20562;-54
2021/10/20 06:52:48;;;;;;;7.07;2.78;;;;;;;12.65;100.00;96394.31;5029234;28;20065;-51
2021/10/20 06:55:17;;;;;;;5.30;3.00;;;;;;;12.90;100.00;96393.41;5026929;28;20069;-52
2021/10/20 06:57:45;;;;;;;4.15;2.78;;;;;;;13.06;100.00;96398.75;5020238;28;20553;-55
2021/10/20 07:00:14;;;;;;;4.10;2.47;;;;;;;12.71;100.00;96406.91;5018648;28;20107;-50
2021/10/20 07:02:43;;;;;;;4.85;2.70;;;;;;;13.14;100.00;96402.41;5024481;28;20068;-52
2021/10/20 07:05:13;;;;;;;3.05;2.22;;;;;;;13.15;100.00;96404.91;5043932;28;20075;-49
2021/10/20 07:07:41;;;;;;;5.40;2.42;;;;;;;13.47;100.00;96411.28;5033693;28;20061;-55
2021/10/20 07:10:10;;;;;;;3.05;2.28;;;;;;;13.75;100.00;96409.97;5020594;28;20516;-50
2021/10/20 07:12:39;;;;;;;3.33;2.20;;;;;;;13.95;100.00;96414.94;5024688;28;20063;-56
2021/10/20 07:15:08;;;;;;;4.85;2.33;;;;;;;14.25;100.00;96416.09;5049844;28;20524;-55
2021/10/20 07:17:38;;;;;;;5.80;2.28;;;;;;;14.49;100.00;96409.91;5037258;28;20088;-50
2021/10/20 07:20:07;;;;;;;3.33;1.97;;;;;;;14.64;100.00;96418.81;5031365;28;20111;-53
2021/10/20 07:22:39;;;;;;;5.65;2.10;;;;;;;14.90;100.00;96415.91;5036934;28;20079;-53
2021/10/20 07:25:09;;;;;;;3.83;1.95;;;;;;;14.92;100.00;96413.91;5047110;28;20075;-54
2021/10/20 07:27:38;;;;;;;;;;;;;;;15.24;100.00;96412.06;5045916;28;20068;-53
2021/10/20 07:30:08;;;;;;;2.58;2.03;;;;;;;15.46;100.00;96413.13;5023411;28;19963;-53
2021/10/20 07:32:39;;;;;;;3.08;1.92;;;;;;;15.43;100.00;96406.31;5020722;28;20292;-51
2021/10/20 07:35:08;;;;;;;3.72;1.80;;;;;;;15.33;100.00;96405.72;5016262;28;20069;-49
2021/10/20 07:37:38;;;;;;;5.80;2.20;;;;;;;15.21;100.00;96404.47;5018947;28;20060;-56
2021/10/20 07:40:09;;;;;;;4.68;2.25;;;;;;;14.98;100.00;96396.47;5021660;28;20073;-55
2021/10/20 07:42:39;;;;;;;3.97;1.85;;;;;;;15.55;100.00;96398.75;5021822;28;20591;-51
2021/10/20 07:45:09;;;;;;;3.92;2.00;;;;;;;16.16;100.00;96395.31;5047417;28;20080;-53
2021/10/20 07:47:38;;;;;;;4.00;2.00;;;;;;;16.42;100.00;96395.72;5039902;28;20065;-52
2021/10/20 07:50:07;;;;;;;3.30;2.10;;;;;;;16.38;100.00;96383.78;5051061;28;20068;-49
2021/10/20 07:52:36;;;;;;;5.05;2.10;;;;;;;16.02;100.00;96391.59;5033650;28;20065;-52
2021/10/20 07:55:07;;;;;;;7.45;2.38;;;;;;;16.74;100.00;96389.22;5021571;28;20485;-50
2021/10/20 07:57:36;;;;;;;2.45;1.70;;;;;;;16.94;100.00;96384.16;5040963;28;20060;-52
2021/10/20 08:00:06;;;;;;;4.07;1.77;;;;;;;16.79;100.00;96393.97;5040094;28;20081;-50
2021/10/20 08:02:35;;;;;;;;;;;;;;;17.16;100.00;96389.53;5020925;28;20061;-47
2021/10/20 08:05:03;;;;;;;3.65;1.83;;;;;;;16.98;100.00;96389.94;5038738;28;19994;-51
2021/10/20 08:07:32;;;;;;;2.55;1.60;;;;;;;17.42;100.00;96394.34;5028469;28;20068;-53
2021/10/20 08:10:00;;;;;;;2.67;1.60;;;;;;;17.41;100.00;96398.00;5021225;28;20091;-53
2021/10/20 08:12:30;;;;;;;3.05;1.60;;;;;;;17.44;100.00;96400.28;5033691;28;20077;-50
2021/10/20 08:15:00;;;;;;;3.85;1.60;;;;;;;17.20;100.00;96399.59;5042719;28;20084;-50
2021/10/20 08:17:28;;;;;;;3.17;1.80;;;;;;;17.42;100.00;96397.00;5046491;28;20469;-49
2021/10/20 08:19:57;;;;;;;4.93;1.77;;;;;;;17.40;100.00;96396.34;5043542;28;20076;-55
2021/10/20 08:22:25;;;;;;;2.15;1.52;;;;;;;17.70;100.00;96399.72;5038715;28;20068;-50
2021/10/20 08:24:54;;;;;;;3.00;1.63;;;;;;;17.91;100.00;96399.75;5039920;28;20073;-54
2021/10/20 08:27:22;;;;;;;4.40;1.73;;;;;;;18.21;100.00;96395.06;5037931;28;20092;-56
2021/10/20 08:29:52;;;;;;;2.03;1.75;;;;;;;17.96;100.00;96394.69;5046477;28;20088;-52
2021/10/20 08:32:21;;;;;;;3.13;1.80;;;;;;;17.87;100.00;96389.66;5032989;28;20069;-53
2021/10/20 08:34:50;;;;;;;7.50;2.00;;;;;;;18.12;100.00;96395.41;5040199;28;20073;-54
2021/10/20 08:37:19;;;;;;;3.30;1.77;;;;;;;17.89;100.00;96388.44;5017942;28;20077;-52
2021/10/20 08:39:47;;;;;;;3.40;1.80;;;;;;;18.33;100.00;96378.50;5022703;28;20069;-51
2021/10/20 08:42:16;;;;;;;3.95;1.80;;;;;;;19.00;100.00;96374.41;5011432;28;20077;-54
2021/10/20 08:45:08;;;;;;;3.17;2.10;;;;;;;19.18;100.00;96375.47;5048836;28;20103;-56
2021/10/20 08:47:38;;;;;;;4.28;1.77;;;;;;;19.07;100.00;96373.41;5033471;28;20572;-53
2021/10/20 08:50:08;;;;;;;;;;;;;;;19.71;100.00;96376.66;5033590;28;20069;-53
2021/10/20 08:52:36;;;;;;;3.30;1.73;;;;;;;19.06;100.00;96379.75;5021707;28;20357;-56
2021/10/20 08:55:05;;;;;;;4.28;1.92;;;;;;;19.46;100.00;96377.22;5030864;28;20069;-51
2021/10/20 08:57:34;;;;;;;6.18;2.33;;;;;;;19.76;100.00;96371.53;5045664;28;20064;-53
2021/10/20 09:00:07;;;;;;;4.00;1.88;;;;;;;19.52;100.00;96370.22;5033455;28;20091;-51
2021/10/20 09:02:39;;;;;;;5.30;2.25;;;;;;;20.17;100.00;96359.81;5042261;28;21297;-54
2021/10/20 09:05:13;;;;;;;3.03;1.95;;;;;;;19.18;100.00;96354.09;5043916;28;20072;-53
2021/10/20 09:07:42;;;;;;;3.47;2.15;;;;;;;19.65;92.60;96349.72;5026675;28;20057;-53
2021/10/20 09:10:12;;;;;;;4.07;2.05;;;;;;;19.59;82.69;96355.03;5013362;28;20076;-54
2021/10/20 09:12:41;;;;;;;3.90;2.20;;;;;;;19.44;84.35;96356.03;5032285;28;20069;-54
2021/10/20 09:15:13;;;;;;;2.30;1.83;;;;;;;19.82;82.87;96344.78;5052242;28;20095;-48
2021/10/20 09:17:47;;;;;;;3.00;1.98;;;;;;;20.16;76.49;96348.25;5048948;28;20265;-53
2021/10/20 09:20:24;;;;;;;3.33;2.00;;;;;;;19.71;74.33;96336.53;5043696;28;20080;-56
2021/10/20 09:23:01;;;;;;;4.95;2.15;;;;;;;20.20;74.42;96335.28;5030573;28;20068;-49
2021/10/20 09:25:35;;;;;;;2.45;1.80;;;;;;;19.66;74.79;96332.63;5034228;28;20068;-55
2021/10/20 09:28:05;;;;;;;2.65;1.95;;;;;;;20.28;70.96;96329.72;5030727;28;20064;-54
2021/10/20 09:30:37;;;;;;;5.43;2.25;;;;;;;20.65;68.91;96320.19;5043041;28;20162;-51
2021/10/20 09:33:07;;;;;;;2.58;1.83;;;;;;;20.42;66.60;96320.63;5043728;28;20100;-50
2021/10/20 09:35:35;;;;;;;5.55;1.75;;;;;;;20.38;65.32;96316.72;5037683;28;20111;-51
2021/10/20 09:38:04;;;;;;;1.75;1.50;;;;;;;20.60;63.49;96303.91;5044253;28;20083;-52
2021/10/20 09:40:39;;;;;;;3.13;1.67;;;;;;;21.06;62.41;96295.66;5042686;28;20075;-52
2021/10/20 09:43:08;;;;;;;2.95;1.83;;;;;;;21.24;59.49;96289.56;5037398;28;20072;-53
2021/10/20 09:45:40;;;;;;;3.40;1.65;;;;;;;21.46;57.50;96282.03;5024349;28;20076;-50
2021/10/20 09:48:17;;;;;;;2.90;1.90;;;;;;;21.32;55.78;96280.44;5027301;28;20089;-56
2021/10/20 09:51:06;;;;;;;3.95;1.88;;;;;;;21.70;55.48;96279.56;5021630;28;20453;-53
2021/10/20 09:53:36;;;;;;;4.00;1.83;;;;;;;21.47;55.09;96274.78;5021754;28;20065;-49
2021/10/20 09:56:19;;;;;;;2.97;1.97;;;;;;;22.30;53.21;96263.78;5035908;28;20072;-54
2021/10/20 09:58:49;;;;;;;2.88;1.70;;;;;;;21.49;54.16;96275.41;5029201;28;20540;-53
2021/10/20 10:01:20;;;;;;;2.22;1.70;;;;;;;22.18;51.99;96274.41;5025712;28;20077;-51
2021/10/20 10:03:49;;;;;;;2.30;1.63;;;;;;;22.32;51.38;96256.28;5028789;28;20061;-52
2021/10/20 10:06:18;;;;;;;2.65;1.63;;;;;;;22.41;50.12;96264.88;5047796;28;20080;-52
2021/10/20 10:08:47;;;;;;;2.40;1.70;;;;;;;22.23;51.27;96252.28;5031536;28;20084;-52
2021/10/20 10:11:15;;;;;;;3.08;1.73;;;;;;;22.67;51.04;96242.22;5036421;28;20071;-50
2021/10/20 10:13:48;;;;;;;3.05;1.50;;;;;;;21.93;48.73;96242.19;5040974;28;20065;-51
2021/10/20 10:16:21;;;;;;;3.78;1.67;;;;;;;22.35;50.09;96239.72;5028824;28;20065;-51
2021/10/20 10:18:50;;;;;;;2.45;1.60;;;;;;;22.73;47.76;96235.97;5029270;28;20083;-51
2021/10/20 10:21:34;;;;;;;5.55;1.52;;;;;;;22.18;49.40;96231.44;5021134;28;20089;-54
2021/10/20 10:24:04;;;;;;;2.78;1.58;;;;;;;22.38;48.71;96220.47;5016453;28;20614;-54
2021/10/20 10:26:35;;;;;;;2.72;1.52;;;;;;;22.72;47.55;96220.88;5048053;28;20075;-51
2021/10/20 10:29:09;;;;;;;2.60;1.77;;;;;;;22.60;47.47;96220.00;5035871;28;20068;-54
2021/10/20 10:31:42;;;;;;;3.63;1.73;;;;;;;22.83;47.30;96219.28;5022057;28;20073;-48
2021/10/20 10:34:18;;;;;;;2.50;1.80;;;;;;;22.77;46.42;96215.63;5038502;28;20182;-54
2021/10/20 10:36:58;;;;;;;2.55;1.75;;;;;;;22.89;46.96;96210.31;5037055;28;20076;-55
2021/10/20 10:39:27;;;;;;;4.65;1.70;;;;;;;22.83;47.61;96212.03;5019265;28;20081;-50
2021/10/20 10:42:00;;;;;;;4.22;1.70;;;;;;;22.77;45.95;96210.25;5023584;28;20534;-53
2021/10/20 10:44:30;;;;;;;2.70;1.50;;;;;;;22.82;46.36;96198.84;5013104;28;20065;-55
2021/10/20 10:47:16;;;;;;;;;;;;;;;22.89;45.63;96200.38;5025445;28;20072;-51
2021/10/20 10:49:48;;;;;;;3.25;1.75;;;;;;;22.79;46.74;96196.59;5040162;28;19968;-51
2021/10/20 10:52:32;;;;;;;2.28;1.67;;;;;;;22.51;46.56;96200.69;5047705;28;20079;-53
2021/10/20 10:55:14;;;;;;;5.00;1.65;;;;;;;22.82;46.20;96196.16;5042333;28;20064;-55
2021/10/20 10:57:45;;;;;;;2.83;1.50;;;;;;;23.05;46.50;96195.41;5043855;28;20084;-51
2021/10/20 11:00:36;;;;;;;1.85;1.45;;;;;;;22.58;48.05;96193.34;5026056;28;20080;-51
2021/10/20 11:03:15;;;;;;;;;;;;;;;22.51;47.73;96198.00;5044932;28;20689;-50
2021/10/20 11:05:52;;;;;;;4.15;1.60;;;;;;;22.71;48.37;96193.19;5046917;28;20282;-55
2021/10/20 11:08:21;;;;;;;3.08;1.70;;;;;;;23.02;49.44;96193.19;5023272;28;20085;-56
2021/10/20 11:10:51;;;;;;;2.25;1.60;;;;;;;23.36;47.10;96188.94;5024384;28;20568;-49
2021/10/20 11:13:19;;;;;;;3.47;1.90;;;;;;;23.63;47.83;96181.22;5016859;28;20556;-54
2021/10/20 11:15:48;;;;;;;1.65;1.40;;;;;;;23.29;46.54;96172.06;5022089;28;20084;-50
2021/10/20 11:18:21;;;;;;;1.97;1.60;;;;;;;23.35;47.72;96168.47;5045061;28;20092;-51
2021/10/20 11:20:49;;;;;;;3.90;1.98;;;;;;;23.46;46.76;96159.56;5050300;28;20081;-53
2021/10/20 11:23:19;;;;;;;2.42;1.73;;;;;;;23.43;47.51;96147.44;5045109;28;20076;-53
2021/10/20 11:25:48;;;;;;;2.30;1.67;;;;;;;24.07;44.65;96142.13;5033961;28;20084;-50
2021/10/20 11:28:17;;;;;;;2.97;1.83;;;;;;;24.05;44.82;96132.63;5014586;28;20077;-52
2021/10/20 11:30:46;;;;;;;2.28;1.75;;;;;;;23.82;45.00;96144.28;5015278;28;20174;-55
2021/10/20 11:33:16;;;;;;;2.75;1.70;;;;;;;24.01;45.76;96128.78;5013030;28;20099;-56
2021/10/20 11:35:47;;;;;;;3.85;1.80;;;;;;;23.50;45.81;96117.69;5021266;28;20045;-54
2021/10/20 11:38:17;;;;;;;3.58;2.10;;;;;;;24.00;45.51;96122.56;5030958;28;20573;-50
2021/10/20 11:40:46;;;;;;;;;;;;;;;24.04;45.59;96117.53;5030719;28;20091;-52